Time,TemperatureF,DewpointF,PressureIn,WindDirection,WindDirectionDegrees,WindSpeedMPH,WindSpeedGustMPH,Humidity,HourlyPrecipIn,Conditions,Clouds,dailyrainin,SoftwareType,DateUTC
2013-07-03 00:02:00,70.4,69.0,30.14,SSE,161,0.0,2.0,96,0.00,,,0.01,weatherlink.com 1.10,2013-07-03 04:02:00,
2013-07-03 00:17:00,70.2,69.0,30.14,SSE,167,0.0,2.0,96,0.00,,,0.01,weatherlink.com 1.10,2013-07-03 04:17:00,
2013-07-03 00:32:00,70.2,69.0,30.13,North,5,1.0,2.0,96,0.00,,,0.01,weatherlink.com 1.10,2013-07-03 04:32:00,
2013-07-03 00:47:00,70.1,69.0,30.14,ESE,122,0.0,4.0,96,0.00,,,0.01,weatherlink.com 1.10,2013-07-03 04:47:00,
2013-07-03 01:02:00,70.3,69.0,30.13,SE,138,0.0,2.0,97,0.00,,,0.01,weatherlink.com 1.10,2013-07-03 05:02:00,
2013-07-03 01:17:00,70.3,69.0,30.13,SE,142,0.0,1.0,97,0.00,,,0.01,weatherlink.com 1.10,2013-07-03 05:17:00,
2013-07-03 01:32:00,70.4,70.0,30.12,SSW,200,1.0,1.0,97,0.00,,,0.01,weatherlink.com 1.10,2013-07-03 05:32:00,
2013-07-03 01:47:00,70.4,70.0,30.12,South,173,0.0,2.0,97,0.00,,,0.01,weatherlink.com 1.10,2013-07-03 05:47:00,
2013-07-03 02:02:00,70.6,70.0,30.12,South,173,0.0,2.0,97,0.00,,,0.00,weatherlink.com 1.10,2013-07-03 06:02:00,
2013-07-03 02:47:00,70.7,70.0,30.11,North,5,2.0,3.0,97,0.00,,,0.00,weatherlink.com 1.10,2013-07-03 06:47:00,
2013-07-03 03:02:00,70.8,70.0,30.11,North,360,1.0,3.0,97,0.00,,,0.00,weatherlink.com 1.10,2013-07-03 07:02:00,
2013-07-03 03:18:00,70.9,70.0,30.10,NNE,24,2.0,5.0,97,0.00,,,0.00,weatherlink.com 1.10,2013-07-03 07:18:00,
2013-07-03 03:33:00,71.0,70.0,30.11,SE,138,1.0,3.0,97,0.00,,,0.00,weatherlink.com 1.10,2013-07-03 07:33:00,
2013-07-03 03:48:00,71.1,70.0,30.11,ENE,74,1.0,6.0,97,0.00,,,0.00,weatherlink.com 1.10,2013-07-03 07:48:00,
2013-07-03 04:33:00,71.3,70.0,30.12,SW,225,0.0,7.0,97,0.00,,,0.00,weatherlink.com 1.10,2013-07-03 08:33:00,
2013-07-03 05:03:00,71.4,71.0,30.12,SE,130,0.0,5.0,97,0.00,,,0.00,weatherlink.com 1.10,2013-07-03 09:03:00,
2013-07-03 05:18:00,71.4,71.0,30.12,WNW,303,0.0,4.0,97,0.00,,,0.00,weatherlink.com 1.10,2013-07-03 09:18:00,
2013-07-03 05:33:00,71.4,71.0,30.13,SW,217,0.0,4.0,97,0.00,,,0.00,weatherlink.com 1.10,2013-07-03 09:33:00,
2013-07-03 05:48:00,71.5,71.0,30.13,SSE,148,0.0,4.0,97,0.00,,,0.00,weatherlink.com 1.10,2013-07-03 09:48:00,
2013-07-03 06:03:00,71.5,71.0,30.14,SSW,213,0.0,3.0,97,0.00,,,0.00,weatherlink.com 1.10,2013-07-03 10:03:00,
2013-07-03 06:18:00,71.5,71.0,30.14,SSE,168,0.0,1.0,97,0.00,,,0.00,weatherlink.com 1.10,2013-07-03 10:18:00,
2013-07-03 06:33:00,71.5,71.0,30.15,SE,125,0.0,2.0,97,0.00,,,0.00,weatherlink.com 1.10,2013-07-03 10:33:00,
2013-07-03 07:03:00,71.6,71.0,30.16,South,176,0.0,3.0,97,0.00,,,0.00,weatherlink.com 1.10,2013-07-03 11:03:00,
2013-07-03 07:18:00,71.7,71.0,30.17,SE,140,0.0,3.0,97,0.00,,,0.00,weatherlink.com 1.10,2013-07-03 11:18:00,
2013-07-03 07:33:00,71.8,71.0,30.18,SE,141,0.0,1.0,97,0.00,,,0.00,weatherlink.com 1.10,2013-07-03 11:33:00,
2013-07-03 07:48:00,71.9,71.0,30.18,SSW,197,0.0,4.0,97,0.00,,,0.00,weatherlink.com 1.10,2013-07-03 11:48:00,
2013-07-03 08:03:00,72.0,71.0,30.19,South,172,1.0,2.0,97,0.00,,,0.00,weatherlink.com 1.10,2013-07-03 12:03:00,
2013-07-03 08:18:00,72.1,71.0,30.19,SSE,156,1.0,4.0,97,0.00,,,0.00,weatherlink.com 1.10,2013-07-03 12:18:00,
2013-07-03 08:33:00,72.2,71.0,30.19,East,97,0.0,2.0,97,0.00,,,0.00,weatherlink.com 1.10,2013-07-03 12:33:00,
2013-07-03 08:48:00,72.4,72.0,30.19,South,183,0.0,4.0,97,0.00,,,0.00,weatherlink.com 1.10,2013-07-03 12:48:00,
2013-07-03 09:03:00,72.4,72.0,30.20,WSW,238,0.0,3.0,97,0.00,,,0.00,weatherlink.com 1.10,2013-07-03 13:03:00,
2013-07-03 09:18:00,72.4,72.0,30.20,SW,217,1.0,4.0,97,0.00,,,0.00,weatherlink.com 1.10,2013-07-03 13:18:00,
2013-07-03 09:48:00,72.8,72.0,30.20,SSE,161,0.0,3.0,97,0.00,,,0.00,weatherlink.com 1.10,2013-07-03 13:48:00,
2013-07-03 10:03:00,73.1,72.0,30.20,SSE,156,0.0,4.0,97,0.00,,,0.00,weatherlink.com 1.10,2013-07-03 14:03:00,
2013-07-03 10:18:00,73.9,73.0,30.19,SE,140,0.0,2.0,97,0.00,,,0.00,weatherlink.com 1.10,2013-07-03 14:18:00,
2013-07-03 10:33:00,74.0,73.0,30.20,SSE,165,0.0,2.0,96,0.00,,,0.00,weatherlink.com 1.10,2013-07-03 14:33:00,
2013-07-03 10:48:00,74.3,73.0,30.20,WSW,248,0.0,1.0,95,0.00,,,0.00,weatherlink.com 1.10,2013-07-03 14:48:00,
2013-07-03 11:03:00,74.3,73.0,30.20,SW,217,0.0,1.0,95,0.00,,,0.00,weatherlink.com 1.10,2013-07-03 15:03:00,
2013-07-03 11:33:00,73.4,72.0,30.21,ENE,59,0.0,2.0,95,0.00,,,0.00,weatherlink.com 1.10,2013-07-03 15:33:00,
2013-07-03 11:48:00,73.1,72.0,30.21,North,9,0.0,3.0,96,0.00,,,0.00,weatherlink.com 1.10,2013-07-03 15:48:00,
2013-07-03 12:03:00,72.9,72.0,30.21,North,9,0.0,2.0,96,0.00,,,0.00,weatherlink.com 1.10,2013-07-03 16:03:00,
2013-07-03 12:18:00,74.0,73.0,30.21,North,9,0.0,1.0,97,0.00,,,0.00,weatherlink.com 1.10,2013-07-03 16:18:00,
2013-07-03 12:33:00,74.4,74.0,30.21,North,9,0.0,1.0,97,0.00,,,0.00,weatherlink.com 1.10,2013-07-03 16:33:00,
2013-07-03 12:48:00,74.7,74.0,30.20,North,9,1.0,1.0,97,0.00,,,0.00,weatherlink.com 1.10,2013-07-03 16:48:00,
2013-07-03 13:03:00,75.3,74.0,30.19,North,9,0.0,1.0,97,0.00,,,0.00,weatherlink.com 1.10,2013-07-03 17:03:00,
2013-07-03 13:18:00,75.5,75.0,30.19,North,9,0.0,2.0,97,0.00,,,0.00,weatherlink.com 1.10,2013-07-03 17:18:00,
2013-07-03 14:04:00,75.4,75.0,30.19,North,11,1.0,1.0,97,0.00,,,0.00,weatherlink.com 1.10,2013-07-03 18:04:00,
2013-07-03 14:19:00,75.3,74.0,30.19,NNW,346,2.0,3.0,96,0.00,,,0.00,weatherlink.com 1.10,2013-07-03 18:19:00,
2013-07-03 14:34:00,75.4,74.0,30.19,SW,229,0.0,3.0,96,0.00,,,0.00,weatherlink.com 1.10,2013-07-03 18:34:00,
2013-07-03 14:49:00,75.5,74.0,30.19,South,175,0.0,1.0,96,0.00,,,0.00,weatherlink.com 1.10,2013-07-03 18:49:00,
2013-07-03 15:04:00,75.7,74.0,30.18,NW,310,0.0,1.0,95,0.00,,,0.00,weatherlink.com 1.10,2013-07-03 19:04:00,
2013-07-03 15:19:00,76.1,75.0,30.17,ENE,57,1.0,2.0,95,0.00,,,0.00,weatherlink.com 1.10,2013-07-03 19:19:00,
2013-07-03 15:34:00,76.8,74.0,30.17,NE,54,2.0,3.0,92,0.00,,,0.00,weatherlink.com 1.10,2013-07-03 19:34:00,
2013-07-03 15:49:00,78.4,74.0,30.17,East,91,1.0,2.0,86,0.00,,,0.00,weatherlink.com 1.10,2013-07-03 19:49:00,
2013-07-03 16:34:00,75.4,73.0,30.18,North,351,2.0,2.0,93,0.00,,,0.00,weatherlink.com 1.10,2013-07-03 20:34:00,
2013-07-03 16:49:00,75.2,74.0,30.18,WSW,251,0.0,2.0,95,0.00,,,0.00,weatherlink.com 1.10,2013-07-03 20:49:00,
2013-07-03 17:04:00,75.0,74.0,30.17,West,273,1.0,2.0,95,0.00,,,0.00,weatherlink.com 1.10,2013-07-03 21:04:00,
2013-07-03 17:19:00,76.2,75.0,30.17,North,355,1.0,6.0,97,0.00,,,0.00,weatherlink.com 1.10,2013-07-03 21:19:00,
2013-07-03 17:34:00,75.7,74.0,30.17,West,267,0.0,4.0,94,0.00,,,0.00,weatherlink.com 1.10,2013-07-03 21:34:00,
2013-07-03 17:49:00,75.9,74.0,30.16,SSW,206,3.0,4.0,93,0.00,,,0.00,weatherlink.com 1.10,2013-07-03 21:49:00,
2013-07-03 18:19:00,76.4,74.0,30.16,East,84,1.0,5.0,92,0.00,,,0.00,weatherlink.com 1.10,2013-07-03 22:19:00,
2013-07-03 18:34:00,76.5,74.0,30.16,NNW,331,1.0,2.0,92,0.00,,,0.00,weatherlink.com 1.10,2013-07-03 22:34:00,
2013-07-03 18:49:00,76.4,74.0,30.17,South,171,0.0,2.0,92,0.00,,,0.00,weatherlink.com 1.10,2013-07-03 22:49:00,
2013-07-03 19:04:00,76.1,74.0,30.16,SSE,162,0.0,1.0,92,0.00,,,0.00,weatherlink.com 1.10,2013-07-03 23:04:00,
2013-07-03 19:19:00,75.8,74.0,30.16,NNE,28,0.0,1.0,93,0.00,,,0.00,weatherlink.com 1.10,2013-07-03 23:19:00,
2013-07-03 19:34:00,75.4,73.0,30.16,WNW,300,0.0,2.0,93,0.00,,,0.00,weatherlink.com 1.10,2013-07-03 23:34:00,
2013-07-03 19:49:00,75.1,73.0,30.18,NW,306,0.0,1.0,94,0.00,,,0.00,weatherlink.com 1.10,2013-07-03 23:49:00,
2013-07-03 20:04:00,74.9,73.0,30.17,West,278,0.0,2.0,94,0.00,,,0.00,weatherlink.com 1.10,2013-07-04 00:04:00,
2013-07-03 20:19:00,74.4,73.0,30.18,NNW,348,0.0,3.0,94,0.00,,,0.00,weatherlink.com 1.10,2013-07-04 00:19:00,
2013-07-03 20:34:00,74.1,72.0,30.18,WSW,238,0.0,2.0,94,0.00,,,0.00,weatherlink.com 1.10,2013-07-04 00:34:00,
2013-07-03 21:04:00,73.6,72.0,30.19,SSW,200,0.0,2.0,96,0.00,,,0.00,weatherlink.com 1.10,2013-07-04 01:04:00,
2013-07-03 22:04:00,72.8,72.0,30.19,South,169,0.0,2.0,96,0.01,,,0.01,weatherlink.com 1.10,2013-07-04 02:04:00,
2013-07-03 22:19:00,72.8,72.0,30.20,South,170,0.0,1.0,96,0.00,,,0.01,weatherlink.com 1.10,2013-07-04 02:19:00,
2013-07-03 22:34:00,72.7,72.0,30.20,South,183,0.0,2.0,96,0.00,,,0.01,weatherlink.com 1.10,2013-07-04 02:34:00,
2013-07-03 22:49:00,72.5,71.0,30.20,South,182,0.0,1.0,96,0.00,,,0.01,weatherlink.com 1.10,2013-07-04 02:49:00,
2013-07-03 23:19:00,72.3,71.0,30.20,SSW,199,0.0,1.0,97,0.00,,,0.01,weatherlink.com 1.10,2013-07-04 03:19:00,
2013-07-03 23:34:00,72.3,71.0,30.20,SSW,199,0.0,1.0,97,0.00,,,0.01,weatherlink.com 1.10,2013-07-04 03:34:00,
2013-07-03 23:49:00,72.6,72.0,30.20,SSW,200,0.0,1.0,97,0.00,,,0.01,weatherlink.com 1.10,2013-07-04 03:49:00,